Rechercher aéroport 
image banner adimage banner ad
image banner ad

SIXD - Fazenda da Paz Airport

Situé à Santana Do Livramento, Brazil

ICAO - SIXD, IATA -

Données fournies par Airmate  

Information générale

Coordonnées: S30°50'40" W55°34'5"
Élévation : 2267 feet MSL.
Variation magnétique : -13° East
Voir autres Aéroports à Rio Grande do Sul

Données opérationnelles

Accessible au public
Heure actuelle UTC:
Heure actuelle locale:
TAF: TAF SURV 301130Z 3012/0112 04005KT 9999 SCT023 SCT200 TX27/3018Z TN14/0110Z TEMPO 3013/3022 5000 TSSHRA SCT015 FEW040CB BKN070
Voir NOTAMs / SUP AIP / TFR affectant cet aéroport [VIEW]
Fréquences de communication: [VIEW]

Pistes:

Identifiant RWYQFULongueur (ft)Largeur (ft)SurfaceLDA (ft)
11252675GRASS
29252675GRASS

Coordonnées de l'aéroport

Adresse: Santana Do Livramento Brazil

Vue satellite de SIXD